Elwood, Indiana
Current Conditions -  °F | °C
As of 12:55 PM on Friday 24 Oct 2014 (Local Time) from KMZZ Reporting Station
Overcast Overcast  
Wind Chill: 15°   Ceiling: 2400
Heat Index: 15°   Visibility: 10mi
Dew Point:   Wind: 8mph
Humidity: 56%   Direction: 240°WSW
Pressure: 30.09"   Gusts: NA
Location:  40.28°N, 85.82°W
Report Text: KMZZ 241655Z AUTO 24007KT 10SM OVC024 15/07 A3009 RMK AO2 T01540067
Loading
Personal Weather Stations






























Interactive Weather Map
Tropical Storm Tracking
New forecast layout! Learn more

10-Day Weather Forecast

Advertisements
Track Severe Weather on mobile